sensor_id;sensor_type;location;lat;lon;timestamp;temperature;humidity
16823;DHT22;8528;49.976;11.858;2023-01-19T00:00:30;-2.90;99.90
16823;DHT22;8528;49.976;11.858;2023-01-19T00:02:56;-3.10;99.90
16823;DHT22;8528;49.976;11.858;2023-01-19T00:05:23;-3.20;99.90
16823;DHT22;8528;49.976;11.858;2023-01-19T00:07:50;-3.30;99.90
16823;DHT22;8528;49.976;11.858;2023-01-19T00:10:17;-3.40;99.90
16823;DHT22;8528;49.976;11.858;2023-01-19T00:12:44;-3.50;99.90
16823;DHT22;8528;49.976;11.858;2023-01-19T00:15:11;-3.50;99.90
16823;DHT22;8528;49.976;11.858;2023-01-19T00:17:38;-3.50;99.90
16823;DHT22;8528;49.976;11.858;2023-01-19T00:20:08;-3.50;99.90
16823;DHT22;8528;49.976;11.858;2023-01-19T00:22:35;-3.50;99.90
16823;DHT22;8528;49.976;11.858;2023-01-19T00:25:02;-3.50;99.90
16823;DHT22;8528;49.976;11.858;2023-01-19T00:27:29;-3.50;99.90
16823;DHT22;8528;49.976;11.858;2023-01-19T00:30:00;-3.50;99.90
16823;DHT22;8528;49.976;11.858;2023-01-19T00:32:27;-3.50;99.90
16823;DHT22;8528;49.976;11.858;2023-01-19T00:34:54;-3.60;99.90
16823;DHT22;8528;49.976;11.858;2023-01-19T00:37:21;-3.60;99.90
16823;DHT22;8528;49.976;11.858;2023-01-19T00:39:48;-3.70;99.90
16823;DHT22;8528;49.976;11.858;2023-01-19T00:42:15;-3.70;99.90
16823;DHT22;8528;49.976;11.858;2023-01-19T00:45:00;-3.90;99.90
16823;DHT22;8528;49.976;11.858;2023-01-19T00:47:27;-4.00;99.90
16823;DHT22;8528;49.976;11.858;2023-01-19T00:49:54;-4.10;99.90
16823;DHT22;8528;49.976;11.858;2023-01-19T00:52:21;-4.10;99.90
16823;DHT22;8528;49.976;11.858;2023-01-19T00:54:48;-4.20;99.90
16823;DHT22;8528;49.976;11.858;2023-01-19T00:57:15;-4.30;99.90
16823;DHT22;8528;49.976;11.858;2023-01-19T00:59:42;-4.30;99.90
16823;DHT22;8528;49.976;11.858;2023-01-19T01:02:09;-4.40;99.90
16823;DHT22;8528;49.976;11.858;2023-01-19T01:04:37;-4.50;99.90
16823;DHT22;8528;49.976;11.858;2023-01-19T01:07:04;-4.60;99.90
16823;DHT22;8528;49.976;11.858;2023-01-19T01:09:31;-4.70;99.90
16823;DHT22;8528;49.976;11.858;2023-01-19T01:11:58;-4.80;99.90
16823;DHT22;8528;49.976;11.858;2023-01-19T01:14:25;-4.80;99.90
16823;DHT22;8528;49.976;11.858;2023-01-19T01:16:52;-4.90;99.90
16823;DHT22;8528;49.976;11.858;2023-01-19T01:19:19;-4.90;99.90
16823;DHT22;8528;49.976;11.858;2023-01-19T01:21:47;-5.00;99.90
16823;DHT22;8528;49.976;11.858;2023-01-19T01:24:13;-5.00;99.90
16823;DHT22;8528;49.976;11.858;2023-01-19T01:26:40;-5.00;99.90
16823;DHT22;8528;49.976;11.858;2023-01-19T01:29:07;-5.00;99.90
16823;DHT22;8528;49.976;11.858;2023-01-19T01:31:34;-5.00;99.90
16823;DHT22;8528;49.976;11.858;2023-01-19T01:34:01;-5.10;99.90
16823;DHT22;8528;49.976;11.858;2023-01-19T01:36:28;-5.10;99.90
16823;DHT22;8528;49.976;11.858;2023-01-19T01:38:57;-5.20;99.90
16823;DHT22;8528;49.976;11.858;2023-01-19T01:41:24;-5.20;99.90
16823;DHT22;8528;49.976;11.858;2023-01-19T01:43:54;-5.30;99.90
16823;DHT22;8528;49.976;11.858;2023-01-19T01:46:26;-5.40;99.90
16823;DHT22;8528;49.976;11.858;2023-01-19T01:49:04;-5.40;99.90
16823;DHT22;8528;49.976;11.858;2023-01-19T01:51:37;-5.40;99.90
16823;DHT22;8528;49.976;11.858;2023-01-19T01:56:42;-5.50;99.90
16823;DHT22;8528;49.976;11.858;2023-01-19T02:01:53;-5.50;99.90
16823;DHT22;8528;49.976;11.858;2023-01-19T02:04:47;-5.50;99.90
16823;DHT22;8528;49.976;11.858;2023-01-19T02:07:21;-5.60;99.90
16823;DHT22;8528;49.976;11.858;2023-01-19T02:10:08;-5.70;99.90
16823;DHT22;8528;49.976;11.858;2023-01-19T02:12:54;-5.80;99.90
16823;DHT22;8528;49.976;11.858;2023-01-19T02:15:40;-5.80;99.90
16823;DHT22;8528;49.976;11.858;2023-01-19T02:18:07;-5.90;99.90
16823;DHT22;8528;49.976;11.858;2023-01-19T02:20:34;-6.00;99.90
16823;DHT22;8528;49.976;11.858;2023-01-19T02:23:07;-6.00;99.90
16823;DHT22;8528;49.976;11.858;2023-01-19T02:25:37;-6.00;99.90
16823;DHT22;8528;49.976;11.858;2023-01-19T02:28:06;-6.10;99.90
16823;DHT22;8528;49.976;11.858;2023-01-19T02:30:36;-6.20;99.90
16823;DHT22;8528;49.976;11.858;2023-01-19T02:33:05;-6.20;99.90
16823;DHT22;8528;49.976;11.858;2023-01-19T02:35:33;-6.20;99.90
16823;DHT22;8528;49.976;11.858;2023-01-19T02:38:03;-6.20;99.90
16823;DHT22;8528;49.976;11.858;2023-01-19T02:40:31;-6.30;99.90
16823;DHT22;8528;49.976;11.858;2023-01-19T02:42:58;-6.30;99.90
16823;DHT22;8528;49.976;11.858;2023-01-19T02:45:27;-6.30;99.90
16823;DHT22;8528;49.976;11.858;2023-01-19T02:47:54;-6.30;99.90
16823;DHT22;8528;49.976;11.858;2023-01-19T02:50:53;-6.30;99.90
16823;DHT22;8528;49.976;11.858;2023-01-19T02:53:50;-6.30;99.90
16823;DHT22;8528;49.976;11.858;2023-01-19T03:07:38;-6.50;99.90
16823;DHT22;8528;49.976;11.858;2023-01-19T03:10:14;-6.60;99.90
16823;DHT22;8528;49.976;11.858;2023-01-19T03:13:02;-6.60;99.90
16823;DHT22;8528;49.976;11.858;2023-01-19T03:15:43;-6.60;99.90
16823;DHT22;8528;49.976;11.858;2023-01-19T03:18:14;-6.60;99.90
16823;DHT22;8528;49.976;11.858;2023-01-19T03:20:43;-6.60;99.90
16823;DHT22;8528;49.976;11.858;2023-01-19T03:23:12;-6.60;99.90
16823;DHT22;8528;49.976;11.858;2023-01-19T03:25:44;-6.70;99.90
16823;DHT22;8528;49.976;11.858;2023-01-19T03:28:14;-6.70;99.90
16823;DHT22;8528;49.976;11.858;2023-01-19T03:30:44;-6.60;99.90
16823;DHT22;8528;49.976;11.858;2023-01-19T03:33:16;-6.60;99.90
16823;DHT22;8528;49.976;11.858;2023-01-19T03:35:49;-6.60;99.90
16823;DHT22;8528;49.976;11.858;2023-01-19T03:38:22;-6.60;99.90
16823;DHT22;8528;49.976;11.858;2023-01-19T03:40:57;-6.70;99.90
16823;DHT22;8528;49.976;11.858;2023-01-19T03:43:25;-6.70;99.90
16823;DHT22;8528;49.976;11.858;2023-01-19T03:45:54;-6.80;99.90
16823;DHT22;8528;49.976;11.858;2023-01-19T03:48:23;-6.80;99.90
16823;DHT22;8528;49.976;11.858;2023-01-19T03:50:51;-6.90;99.90
16823;DHT22;8528;49.976;11.858;2023-01-19T03:53:20;-6.90;99.90
16823;DHT22;8528;49.976;11.858;2023-01-19T03:55:50;-7.00;99.90
16823;DHT22;8528;49.976;11.858;2023-01-19T03:58:19;-7.00;99.90
16823;DHT22;8528;49.976;11.858;2023-01-19T04:00:47;-7.10;99.90
16823;DHT22;8528;49.976;11.858;2023-01-19T04:03:16;-7.10;99.90
16823;DHT22;8528;49.976;11.858;2023-01-19T04:05:43;-7.20;99.90
16823;DHT22;8528;49.976;11.858;2023-01-19T04:08:10;-7.20;99.90
16823;DHT22;8528;49.976;11.858;2023-01-19T04:10:37;-7.20;99.90
16823;DHT22;8528;49.976;11.858;2023-01-19T04:13:04;-7.30;99.90
16823;DHT22;8528;49.976;11.858;2023-01-19T04:15:37;-7.30;99.90
16823;DHT22;8528;49.976;11.858;2023-01-19T04:18:05;-7.40;99.90
16823;DHT22;8528;49.976;11.858;2023-01-19T04:20:32;-7.40;99.90
16823;DHT22;8528;49.976;11.858;2023-01-19T04:22:59;-7.50;99.90
16823;DHT22;8528;49.976;11.858;2023-01-19T04:25:27;-7.50;99.90
16823;DHT22;8528;49.976;11.858;2023-01-19T04:27:55;-7.50;99.90
16823;DHT22;8528;49.976;11.858;2023-01-19T04:30:24;-7.50;99.90
16823;DHT22;8528;49.976;11.858;2023-01-19T04:32:51;-7.50;99.90
16823;DHT22;8528;49.976;11.858;2023-01-19T04:35:19;-7.50;99.90
16823;DHT22;8528;49.976;11.858;2023-01-19T04:37:47;-7.50;99.90
16823;DHT22;8528;49.976;11.858;2023-01-19T04:40:14;-7.50;99.90
16823;DHT22;8528;49.976;11.858;2023-01-19T04:42:44;-7.50;99.90
16823;DHT22;8528;49.976;11.858;2023-01-19T04:45:12;-7.50;99.90
16823;DHT22;8528;49.976;11.858;2023-01-19T04:47:39;-7.60;99.90
16823;DHT22;8528;49.976;11.858;2023-01-19T04:50:09;-7.60;99.90
16823;DHT22;8528;49.976;11.858;2023-01-19T04:52:36;-7.60;99.90
16823;DHT22;8528;49.976;11.858;2023-01-19T04:55:05;-7.60;99.90
16823;DHT22;8528;49.976;11.858;2023-01-19T04:57:32;-7.60;99.90
16823;DHT22;8528;49.976;11.858;2023-01-19T04:59:58;-7.70;99.90
16823;DHT22;8528;49.976;11.858;2023-01-19T05:02:25;-7.70;99.90
16823;DHT22;8528;49.976;11.858;2023-01-19T05:04:52;-7.70;99.90
16823;DHT22;8528;49.976;11.858;2023-01-19T05:07:19;-7.80;99.90
16823;DHT22;8528;49.976;11.858;2023-01-19T05:09:46;-7.80;99.90
16823;DHT22;8528;49.976;11.858;2023-01-19T05:12:13;-7.80;99.90
16823;DHT22;8528;49.976;11.858;2023-01-19T05:14:41;-7.80;99.90
16823;DHT22;8528;49.976;11.858;2023-01-19T05:17:09;-7.80;99.90
16823;DHT22;8528;49.976;11.858;2023-01-19T05:19:36;-7.70;99.90
16823;DHT22;8528;49.976;11.858;2023-01-19T05:22:03;-7.60;99.90
16823;DHT22;8528;49.976;11.858;2023-01-19T05:24:31;-7.60;99.90
16823;DHT22;8528;49.976;11.858;2023-01-19T05:26:58;-7.50;99.90
16823;DHT22;8528;49.976;11.858;2023-01-19T05:29:25;-7.50;99.90
16823;DHT22;8528;49.976;11.858;2023-01-19T05:31:51;-7.40;99.90
16823;DHT22;8528;49.976;11.858;2023-01-19T05:34:18;-7.40;99.90
16823;DHT22;8528;49.976;11.858;2023-01-19T05:36:45;-7.30;99.90
16823;DHT22;8528;49.976;11.858;2023-01-19T05:39:12;-7.20;99.90
16823;DHT22;8528;49.976;11.858;2023-01-19T05:41:39;-7.00;99.90
16823;DHT22;8528;49.976;11.858;2023-01-19T05:44:08;-6.90;99.90
16823;DHT22;8528;49.976;11.858;2023-01-19T05:46:35;-6.80;99.90
16823;DHT22;8528;49.976;11.858;2023-01-19T05:49:02;-6.60;99.90
16823;DHT22;8528;49.976;11.858;2023-01-19T05:51:30;-6.50;99.90
16823;DHT22;8528;49.976;11.858;2023-01-19T05:54:00;-6.40;99.90
16823;DHT22;8528;49.976;11.858;2023-01-19T05:56:27;-6.20;99.90
16823;DHT22;8528;49.976;11.858;2023-01-19T05:58:54;-6.10;99.90
16823;DHT22;8528;49.976;11.858;2023-01-19T06:01:21;-6.00;99.90
16823;DHT22;8528;49.976;11.858;2023-01-19T06:03:48;-5.90;99.90
16823;DHT22;8528;49.976;11.858;2023-01-19T06:06:15;-5.70;99.90
16823;DHT22;8528;49.976;11.858;2023-01-19T06:08:43;-5.60;99.90
16823;DHT22;8528;49.976;11.858;2023-01-19T06:11:10;-5.60;99.90
16823;DHT22;8528;49.976;11.858;2023-01-19T06:13:37;-5.50;99.90
16823;DHT22;8528;49.976;11.858;2023-01-19T06:16:08;-5.30;99.90
16823;DHT22;8528;49.976;11.858;2023-01-19T06:18:36;-5.30;99.90
16823;DHT22;8528;49.976;11.858;2023-01-19T06:21:04;-5.10;99.90
16823;DHT22;8528;49.976;11.858;2023-01-19T06:23:33;-5.00;99.90
16823;DHT22;8528;49.976;11.858;2023-01-19T06:26:00;-4.90;99.90
16823;DHT22;8528;49.976;11.858;2023-01-19T06:28:27;-4.90;99.90
16823;DHT22;8528;49.976;11.858;2023-01-19T06:30:55;-4.90;99.90
16823;DHT22;8528;49.976;11.858;2023-01-19T06:33:22;-4.90;99.90
16823;DHT22;8528;49.976;11.858;2023-01-19T06:35:50;-4.80;99.90
16823;DHT22;8528;49.976;11.858;2023-01-19T06:38:17;-4.70;99.90
16823;DHT22;8528;49.976;11.858;2023-01-19T06:40:50;-4.60;99.90
16823;DHT22;8528;49.976;11.858;2023-01-19T06:43:18;-4.50;99.90
16823;DHT22;8528;49.976;11.858;2023-01-19T06:45:46;-4.40;99.90
16823;DHT22;8528;49.976;11.858;2023-01-19T06:48:13;-4.30;99.90
16823;DHT22;8528;49.976;11.858;2023-01-19T06:50:40;-4.20;99.90
16823;DHT22;8528;49.976;11.858;2023-01-19T06:53:06;-4.10;99.90
16823;DHT22;8528;49.976;11.858;2023-01-19T06:55:33;-4.00;99.90
16823;DHT22;8528;49.976;11.858;2023-01-19T06:58:02;-4.00;99.90
16823;DHT22;8528;49.976;11.858;2023-01-19T07:00:28;-3.80;99.90
16823;DHT22;8528;49.976;11.858;2023-01-19T07:02:55;-3.70;99.90
16823;DHT22;8528;49.976;11.858;2023-01-19T07:05:22;-3.50;99.90
16823;DHT22;8528;49.976;11.858;2023-01-19T07:07:51;-3.40;99.90
16823;DHT22;8528;49.976;11.858;2023-01-19T07:10:18;-3.30;99.90
16823;DHT22;8528;49.976;11.858;2023-01-19T07:12:45;-3.30;99.90
16823;DHT22;8528;49.976;11.858;2023-01-19T07:15:14;-3.20;99.90
16823;DHT22;8528;49.976;11.858;2023-01-19T07:17:42;-3.00;99.90
16823;DHT22;8528;49.976;11.858;2023-01-19T07:20:10;-3.00;99.90
16823;DHT22;8528;49.976;11.858;2023-01-19T07:22:39;-2.90;99.90
16823;DHT22;8528;49.976;11.858;2023-01-19T07:25:08;-2.90;99.90
16823;DHT22;8528;49.976;11.858;2023-01-19T07:27:35;-3.00;99.90
16823;DHT22;8528;49.976;11.858;2023-01-19T07:30:02;-2.90;99.90
16823;DHT22;8528;49.976;11.858;2023-01-19T07:32:30;-2.90;99.90
16823;DHT22;8528;49.976;11.858;2023-01-19T07:34:57;-2.90;99.90
16823;DHT22;8528;49.976;11.858;2023-01-19T07:37:23;-2.90;99.90
16823;DHT22;8528;49.976;11.858;2023-01-19T07:39:50;-2.90;99.90
16823;DHT22;8528;49.976;11.858;2023-01-19T07:42:17;-2.80;99.90
16823;DHT22;8528;49.976;11.858;2023-01-19T07:44:44;-2.70;99.90
16823;DHT22;8528;49.976;11.858;2023-01-19T07:47:10;-2.70;99.90
16823;DHT22;8528;49.976;11.858;2023-01-19T07:49:38;-2.80;99.90
16823;DHT22;8528;49.976;11.858;2023-01-19T07:52:05;-2.70;99.90
16823;DHT22;8528;49.976;11.858;2023-01-19T07:54:32;-2.70;99.90
16823;DHT22;8528;49.976;11.858;2023-01-19T07:56:59;-2.70;99.90
16823;DHT22;8528;49.976;11.858;2023-01-19T07:59:28;-2.60;99.90
16823;DHT22;8528;49.976;11.858;2023-01-19T08:01:56;-2.50;99.90
16823;DHT22;8528;49.976;11.858;2023-01-19T08:04:26;-2.50;99.90
16823;DHT22;8528;49.976;11.858;2023-01-19T08:06:54;-2.50;99.90
16823;DHT22;8528;49.976;11.858;2023-01-19T08:09:21;-2.60;99.90
16823;DHT22;8528;49.976;11.858;2023-01-19T08:11:48;-2.50;99.90
16823;DHT22;8528;49.976;11.858;2023-01-19T08:14:15;-2.40;99.90
16823;DHT22;8528;49.976;11.858;2023-01-19T08:16:41;-2.40;99.90
16823;DHT22;8528;49.976;11.858;2023-01-19T08:19:08;-2.30;99.90
16823;DHT22;8528;49.976;11.858;2023-01-19T08:21:35;-2.20;99.90
16823;DHT22;8528;49.976;11.858;2023-01-19T08:24:04;-2.30;99.90
16823;DHT22;8528;49.976;11.858;2023-01-19T08:26:33;-2.20;99.90
16823;DHT22;8528;49.976;11.858;2023-01-19T08:29:03;-2.20;99.90
16823;DHT22;8528;49.976;11.858;2023-01-19T08:31:30;-2.30;99.90
16823;DHT22;8528;49.976;11.858;2023-01-19T08:33:57;-2.20;99.90
16823;DHT22;8528;49.976;11.858;2023-01-19T08:36:24;-2.20;99.90
16823;DHT22;8528;49.976;11.858;2023-01-19T08:38:51;-2.30;99.90
16823;DHT22;8528;49.976;11.858;2023-01-19T08:41:18;-2.20;99.90
16823;DHT22;8528;49.976;11.858;2023-01-19T08:43:45;-2.20;99.90
16823;DHT22;8528;49.976;11.858;2023-01-19T08:46:12;-2.00;99.90
16823;DHT22;8528;49.976;11.858;2023-01-19T08:48:43;-1.90;99.90
16823;DHT22;8528;49.976;11.858;2023-01-19T08:51:11;-1.80;99.90
16823;DHT22;8528;49.976;11.858;2023-01-19T08:53:38;-1.80;99.90
16823;DHT22;8528;49.976;11.858;2023-01-19T08:56:05;-1.80;99.90
16823;DHT22;8528;49.976;11.858;2023-01-19T08:58:39;-1.80;99.90
16823;DHT22;8528;49.976;11.858;2023-01-19T09:01:06;-1.70;99.90
16823;DHT22;8528;49.976;11.858;2023-01-19T09:03:35;-1.80;99.90
16823;DHT22;8528;49.976;11.858;2023-01-19T09:06:18;-1.70;99.90
16823;DHT22;8528;49.976;11.858;2023-01-19T09:08:45;-1.50;99.90
16823;DHT22;8528;49.976;11.858;2023-01-19T09:11:13;-1.40;99.90
16823;DHT22;8528;49.976;11.858;2023-01-19T09:13:40;-1.10;99.90
16823;DHT22;8528;49.976;11.858;2023-01-19T09:16:08;-0.90;99.90
16823;DHT22;8528;49.976;11.858;2023-01-19T09:18:37;-0.70;99.90
16823;DHT22;8528;49.976;11.858;2023-01-19T09:21:08;-0.60;99.90
16823;DHT22;8528;49.976;11.858;2023-01-19T09:30:21;-0.70;99.90
16823;DHT22;8528;49.976;11.858;2023-01-19T09:32:48;-0.60;99.90
16823;DHT22;8528;49.976;11.858;2023-01-19T09:35:15;-0.70;99.90
16823;DHT22;8528;49.976;11.858;2023-01-19T09:37:45;-0.80;99.90
16823;DHT22;8528;49.976;11.858;2023-01-19T09:40:14;-0.80;99.90
16823;DHT22;8528;49.976;11.858;2023-01-19T09:47:57;-1.00;99.90
16823;DHT22;8528;49.976;11.858;2023-01-19T09:50:27;-1.20;99.90
16823;DHT22;8528;49.976;11.858;2023-01-19T09:53:01;-1.30;99.90
16823;DHT22;8528;49.976;11.858;2023-01-19T09:55:29;-1.40;99.90
16823;DHT22;8528;49.976;11.858;2023-01-19T09:57:56;-1.50;99.90
16823;DHT22;8528;49.976;11.858;2023-01-19T10:00:26;-1.50;99.90
16823;DHT22;8528;49.976;11.858;2023-01-19T10:03:08;-1.50;99.90
16823;DHT22;8528;49.976;11.858;2023-01-19T10:12:30;-1.10;99.90
16823;DHT22;8528;49.976;11.858;2023-01-19T10:20:37;-1.10;99.90
16823;DHT22;8528;49.976;11.858;2023-01-19T10:23:22;-1.10;99.90
16823;DHT22;8528;49.976;11.858;2023-01-19T10:25:51;-1.10;99.90
16823;DHT22;8528;49.976;11.858;2023-01-19T10:28:22;-1.00;99.90
16823;DHT22;8528;49.976;11.858;2023-01-19T10:30:50;-0.90;99.90
16823;DHT22;8528;49.976;11.858;2023-01-19T10:33:18;-0.90;99.90
16823;DHT22;8528;49.976;11.858;2023-01-19T10:35:45;-0.80;99.90
16823;DHT22;8528;49.976;11.858;2023-01-19T10:38:14;-0.70;99.90
16823;DHT22;8528;49.976;11.858;2023-01-19T10:46:31;-0.60;99.90
16823;DHT22;8528;49.976;11.858;2023-01-19T10:52:34;-0.50;99.90
16823;DHT22;8528;49.976;11.858;2023-01-19T10:55:23;-0.60;99.90
16823;DHT22;8528;49.976;11.858;2023-01-19T10:57:50;-0.70;99.90
16823;DHT22;8528;49.976;11.858;2023-01-19T11:00:38;-0.70;99.90
16823;DHT22;8528;49.976;11.858;2023-01-19T11:03:29;-0.70;99.90
16823;DHT22;8528;49.976;11.858;2023-01-19T11:06:29;-0.80;99.90
16823;DHT22;8528;49.976;11.858;2023-01-19T11:09:17;-0.90;99.90
16823;DHT22;8528;49.976;11.858;2023-01-19T11:11:47;-0.90;99.90
16823;DHT22;8528;49.976;11.858;2023-01-19T11:14:21;-0.70;99.90
16823;DHT22;8528;49.976;11.858;2023-01-19T11:16:51;-0.60;99.90
16823;DHT22;8528;49.976;11.858;2023-01-19T11:19:31;-0.40;99.90
16823;DHT22;8528;49.976;11.858;2023-01-19T11:22:15;-0.20;99.90
16823;DHT22;8528;49.976;11.858;2023-01-19T11:24:47;0.00;99.90
16823;DHT22;8528;49.976;11.858;2023-01-19T11:27:16;0.10;99.90
16823;DHT22;8528;49.976;11.858;2023-01-19T11:30:12;-0.10;99.90
16823;DHT22;8528;49.976;11.858;2023-01-19T11:32:43;-0.30;99.90
16823;DHT22;8528;49.976;11.858;2023-01-19T11:35:37;-0.20;99.90
16823;DHT22;8528;49.976;11.858;2023-01-19T11:38:24;-0.10;99.90
16823;DHT22;8528;49.976;11.858;2023-01-19T11:40:55;-0.10;99.90
16823;DHT22;8528;49.976;11.858;2023-01-19T11:43:27;-0.30;99.90
16823;DHT22;8528;49.976;11.858;2023-01-19T11:46:14;-0.50;99.90
16823;DHT22;8528;49.976;11.858;2023-01-19T11:48:46;-0.50;99.90
16823;DHT22;8528;49.976;11.858;2023-01-19T11:51:17;-0.50;99.90
16823;DHT22;8528;49.976;11.858;2023-01-19T11:53:50;-0.70;99.90
16823;DHT22;8528;49.976;11.858;2023-01-19T11:56:21;-0.90;99.90
16823;DHT22;8528;49.976;11.858;2023-01-19T11:58:49;-1.00;99.90
16823;DHT22;8528;49.976;11.858;2023-01-19T12:01:30;-1.10;99.90
16823;DHT22;8528;49.976;11.858;2023-01-19T12:04:23;-1.00;99.90
16823;DHT22;8528;49.976;11.858;2023-01-19T12:06:54;-1.00;99.90
16823;DHT22;8528;49.976;11.858;2023-01-19T12:09:27;-1.10;99.90
16823;DHT22;8528;49.976;11.858;2023-01-19T12:12:02;-1.00;99.90
16823;DHT22;8528;49.976;11.858;2023-01-19T12:14:40;-1.00;99.90
16823;DHT22;8528;49.976;11.858;2023-01-19T12:17:15;-0.90;99.90
16823;DHT22;8528;49.976;11.858;2023-01-19T12:20:02;-1.10;99.90
16823;DHT22;8528;49.976;11.858;2023-01-19T12:22:37;-1.10;99.90
16823;DHT22;8528;49.976;11.858;2023-01-19T12:25:18;-1.10;99.90
16823;DHT22;8528;49.976;11.858;2023-01-19T12:27:47;-1.10;99.90
16823;DHT22;8528;49.976;11.858;2023-01-19T12:32:47;-1.00;99.90
16823;DHT22;8528;49.976;11.858;2023-01-19T12:39:00;-1.10;99.90
16823;DHT22;8528;49.976;11.858;2023-01-19T12:41:37;-1.10;99.90
16823;DHT22;8528;49.976;11.858;2023-01-19T12:46:43;-1.00;99.90
16823;DHT22;8528;49.976;11.858;2023-01-19T12:49:27;-1.00;99.90
16823;DHT22;8528;49.976;11.858;2023-01-19T12:52:19;-1.10;99.90
16823;DHT22;8528;49.976;11.858;2023-01-19T12:57:57;-0.90;99.90
16823;DHT22;8528;49.976;11.858;2023-01-19T13:02:53;-0.90;99.90
16823;DHT22;8528;49.976;11.858;2023-01-19T13:18:54;-0.90;99.90
16823;DHT22;8528;49.976;11.858;2023-01-19T13:21:33;-0.80;99.90
16823;DHT22;8528;49.976;11.858;2023-01-19T13:26:34;-0.60;99.90
16823;DHT22;8528;49.976;11.858;2023-01-19T13:29:09;-0.60;99.90
16823;DHT22;8528;49.976;11.858;2023-01-19T13:31:59;-0.70;99.90
16823;DHT22;8528;49.976;11.858;2023-01-19T13:34:42;-0.70;99.90
16823;DHT22;8528;49.976;11.858;2023-01-19T13:37:21;-0.80;99.90
16823;DHT22;8528;49.976;11.858;2023-01-19T13:39:50;-0.80;99.90
16823;DHT22;8528;49.976;11.858;2023-01-19T13:42:37;-0.80;99.90
16823;DHT22;8528;49.976;11.858;2023-01-19T13:45:33;-0.80;99.90
16823;DHT22;8528;49.976;11.858;2023-01-19T13:48:05;-0.90;99.90
16823;DHT22;8528;49.976;11.858;2023-01-19T13:50:36;-0.90;99.90
16823;DHT22;8528;49.976;11.858;2023-01-19T13:53:19;-0.90;99.90
16823;DHT22;8528;49.976;11.858;2023-01-19T13:55:47;-1.00;99.90
16823;DHT22;8528;49.976;11.858;2023-01-19T13:58:21;-1.00;99.90
16823;DHT22;8528;49.976;11.858;2023-01-19T14:00:49;-1.00;99.90
16823;DHT22;8528;49.976;11.858;2023-01-19T14:03:23;-0.90;99.90
16823;DHT22;8528;49.976;11.858;2023-01-19T14:05:52;-1.00;99.90
16823;DHT22;8528;49.976;11.858;2023-01-19T14:08:20;-1.00;99.90
16823;DHT22;8528;49.976;11.858;2023-01-19T14:13:24;-0.90;99.90
16823;DHT22;8528;49.976;11.858;2023-01-19T14:15:55;-0.80;99.90
16823;DHT22;8528;49.976;11.858;2023-01-19T14:18:33;-0.80;99.90
16823;DHT22;8528;49.976;11.858;2023-01-19T14:21:07;-0.70;99.90
16823;DHT22;8528;49.976;11.858;2023-01-19T14:26:40;-0.60;99.90
16823;DHT22;8528;49.976;11.858;2023-01-19T14:29:17;-0.60;99.90
16823;DHT22;8528;49.976;11.858;2023-01-19T14:34:35;-0.50;99.90
16823;DHT22;8528;49.976;11.858;2023-01-19T14:37:25;-0.50;99.90
16823;DHT22;8528;49.976;11.858;2023-01-19T14:42:52;-0.60;99.90
16823;DHT22;8528;49.976;11.858;2023-01-19T14:45:36;-0.60;99.90
16823;DHT22;8528;49.976;11.858;2023-01-19T14:48:05;-0.70;99.90
16823;DHT22;8528;49.976;11.858;2023-01-19T14:50:39;-0.70;99.90
16823;DHT22;8528;49.976;11.858;2023-01-19T14:55:58;-0.70;99.90
16823;DHT22;8528;49.976;11.858;2023-01-19T14:58:29;-0.70;99.90
16823;DHT22;8528;49.976;11.858;2023-01-19T15:00:56;-0.80;99.90
16823;DHT22;8528;49.976;11.858;2023-01-19T15:03:24;-0.90;99.90
16823;DHT22;8528;49.976;11.858;2023-01-19T15:06:13;-1.10;99.90
16823;DHT22;8528;49.976;11.858;2023-01-19T15:08:41;-1.10;99.90
16823;DHT22;8528;49.976;11.858;2023-01-19T15:11:10;-1.30;99.90
16823;DHT22;8528;49.976;11.858;2023-01-19T15:13:38;-1.40;99.90
16823;DHT22;8528;49.976;11.858;2023-01-19T15:16:06;-1.50;99.90
16823;DHT22;8528;49.976;11.858;2023-01-19T15:18:34;-1.50;99.90
16823;DHT22;8528;49.976;11.858;2023-01-19T15:21:02;-1.50;99.90
16823;DHT22;8528;49.976;11.858;2023-01-19T15:23:30;-1.60;99.90
16823;DHT22;8528;49.976;11.858;2023-01-19T15:26:02;-1.60;99.90
16823;DHT22;8528;49.976;11.858;2023-01-19T15:28:30;-1.70;99.90
16823;DHT22;8528;49.976;11.858;2023-01-19T15:30:59;-1.70;99.90
16823;DHT22;8528;49.976;11.858;2023-01-19T15:33:28;-1.70;99.90
16823;DHT22;8528;49.976;11.858;2023-01-19T15:35:58;-1.80;99.90
16823;DHT22;8528;49.976;11.858;2023-01-19T15:38:24;-1.90;99.90
16823;DHT22;8528;49.976;11.858;2023-01-19T15:40:52;-1.90;99.90
16823;DHT22;8528;49.976;11.858;2023-01-19T15:43:18;-2.00;99.90
16823;DHT22;8528;49.976;11.858;2023-01-19T15:45:59;-2.00;99.90
16823;DHT22;8528;49.976;11.858;2023-01-19T15:48:27;-2.00;99.90
16823;DHT22;8528;49.976;11.858;2023-01-19T15:50:54;-2.00;99.90
16823;DHT22;8528;49.976;11.858;2023-01-19T15:53:21;-2.00;99.90
16823;DHT22;8528;49.976;11.858;2023-01-19T15:55:51;-2.00;99.90
16823;DHT22;8528;49.976;11.858;2023-01-19T15:58:18;-2.00;99.90
16823;DHT22;8528;49.976;11.858;2023-01-19T16:00:53;-2.10;99.90
16823;DHT22;8528;49.976;11.858;2023-01-19T16:03:21;-2.10;99.90
16823;DHT22;8528;49.976;11.858;2023-01-19T16:05:48;-2.10;99.90
16823;DHT22;8528;49.976;11.858;2023-01-19T16:08:14;-2.00;99.90
16823;DHT22;8528;49.976;11.858;2023-01-19T16:10:41;-1.90;99.90
16823;DHT22;8528;49.976;11.858;2023-01-19T16:13:09;-2.00;99.90
16823;DHT22;8528;49.976;11.858;2023-01-19T16:15:38;-2.00;99.90
16823;DHT22;8528;49.976;11.858;2023-01-19T16:18:05;-1.90;99.90
16823;DHT22;8528;49.976;11.858;2023-01-19T16:20:31;-1.90;99.90
16823;DHT22;8528;49.976;11.858;2023-01-19T16:22:58;-2.00;99.90
16823;DHT22;8528;49.976;11.858;2023-01-19T16:25:39;-1.90;99.90
16823;DHT22;8528;49.976;11.858;2023-01-19T16:28:06;-1.90;99.90
16823;DHT22;8528;49.976;11.858;2023-01-19T16:30:33;-1.90;99.90
16823;DHT22;8528;49.976;11.858;2023-01-19T16:33:00;-1.90;99.90
16823;DHT22;8528;49.976;11.858;2023-01-19T16:35:27;-1.90;99.90
16823;DHT22;8528;49.976;11.858;2023-01-19T16:37:54;-1.90;99.90
16823;DHT22;8528;49.976;11.858;2023-01-19T16:40:20;-1.80;99.90
16823;DHT22;8528;49.976;11.858;2023-01-19T16:42:47;-1.80;99.90
16823;DHT22;8528;49.976;11.858;2023-01-19T16:45:14;-1.70;99.90
16823;DHT22;8528;49.976;11.858;2023-01-19T16:47:40;-1.60;99.90
16823;DHT22;8528;49.976;11.858;2023-01-19T16:50:11;-1.50;99.90
16823;DHT22;8528;49.976;11.858;2023-01-19T16:52:49;-1.50;99.90
16823;DHT22;8528;49.976;11.858;2023-01-19T16:55:16;-1.50;99.90
16823;DHT22;8528;49.976;11.858;2023-01-19T16:57:42;-1.50;99.90
16823;DHT22;8528;49.976;11.858;2023-01-19T17:00:12;-1.50;99.90
16823;DHT22;8528;49.976;11.858;2023-01-19T17:02:55;-1.50;99.90
16823;DHT22;8528;49.976;11.858;2023-01-19T17:05:46;-1.40;99.90
16823;DHT22;8528;49.976;11.858;2023-01-19T17:08:18;-1.40;99.90
16823;DHT22;8528;49.976;11.858;2023-01-19T17:10:46;-1.50;99.90
16823;DHT22;8528;49.976;11.858;2023-01-19T17:13:13;-1.40;99.90
16823;DHT22;8528;49.976;11.858;2023-01-19T17:15:39;-1.40;99.90
16823;DHT22;8528;49.976;11.858;2023-01-19T17:18:06;-1.40;99.90
16823;DHT22;8528;49.976;11.858;2023-01-19T17:20:39;-1.40;99.90
16823;DHT22;8528;49.976;11.858;2023-01-19T17:23:06;-1.40;99.90
16823;DHT22;8528;49.976;11.858;2023-01-19T17:25:32;-1.40;99.90